Time;durP1;ratioP1;P1;durP2;ratioP2;P2;SDS_P1;SDS_P2;PMS_P1;PMS_P2;Temp;Humidity;BMP_temperature;BMP_pressure;BME280_temperature;BME280_humidity;BME280_pressure;Samples;Min_cycle;Max_cycle;Signal;HPM_P1;HPM_P2
2021/05/02 00:00:12;;;;;;;7.63;6.43;;;8.7;99.9;;;;;;;;;
2021/05/02 00:01:01;;;;;;;7.63;6.43;;;8.7;99.9;;;;;;;;;
2021/05/02 00:02:01;;;;;;;7.23;6.47;;;8.7;99.9;;;;;;;;;
2021/05/02 00:02:25;;;;;;;7.37;6.47;;;8.7;99.9;;;;;;;;;
2021/05/02 00:03:01;;;;;;;7.37;6.47;;;8.7;99.9;;;;;;;;;
2021/05/02 00:03:16;;;;;;;9.33;7.43;;;8.7;99.9;;;;;;;;;
2021/05/02 00:04:02;;;;;;;9.33;7.43;;;8.7;99.9;;;;;;;;;
2021/05/02 00:04:14;;;;;;;9.4;6.9;;;8.6;99.9;;;;;;;;;
2021/05/02 00:04:38;;;;;;;9.4;6.9;;;8.6;99.9;;;;;;;;;
2021/05/02 00:05:01;;;;;;;9.4;6.9;;;8.6;99.9;;;;;;;;;
2021/05/02 00:05:14;;;;;;;8.37;7.33;;;8.6;99.9;;;;;;;;;
2021/05/02 00:05:29;;;;;;;8.37;7.33;;;8.6;99.9;;;;;;;;;
2021/05/02 00:06:01;;;;;;;8.37;7.33;;;8.6;99.9;;;;;;;;;
2021/05/02 00:06:16;;;;;;;8.7;7.2;;;8.5;99.9;;;;;;;;;
2021/05/02 00:06:26;;;;;;;8.7;7.2;;;8.5;99.9;;;;;;;;;
2021/05/02 00:06:51;;;;;;;8.7;7.2;;;8.5;99.9;;;;;;;;;
2021/05/02 00:07:02;;;;;;;8.7;7.2;;;8.5;99.9;;;;;;;;;
2021/05/02 00:07:17;;;;;;;8.4;7.17;;;8.5;99.9;;;;;;;;;
2021/05/02 00:07:27;;;;;;;8.4;7.17;;;8.5;99.9;;;;;;;;;
2021/05/02 00:07:42;;;;;;;8.4;7.17;;;8.5;99.9;;;;;;;;;
2021/05/02 00:08:01;;;;;;;8.4;7.17;;;8.5;99.9;;;;;;;;;
2021/05/02 00:08:13;;;;;;;8.4;7.17;;;8.5;99.9;;;;;;;;;
2021/05/02 00:08:28;;;;;;;8.97;7.93;;;8.4;99.9;;;;;;;;;
2021/05/02 00:08:39;;;;;;;8.97;7.93;;;8.4;99.9;;;;;;;;;
2021/05/02 00:09:01;;;;;;;8.97;7.93;;;8.4;99.9;;;;;;;;;
2021/05/02 00:09:04;;;;;;;8.97;7.93;;;8.4;99.9;;;;;;;;;
2021/05/02 00:09:15;;;;;;;8.67;7.17;;;8.4;99.9;;;;;;;;;
2021/05/02 00:09:30;;;;;;;8.67;7.17;;;8.4;99.9;;;;;;;;;
2021/05/02 00:09:40;;;;;;;8.67;7.17;;;8.4;99.9;;;;;;;;;
2021/05/02 00:09:56;;;;;;;8.67;7.17;;;8.4;99.9;;;;;;;;;
2021/05/02 00:10:01;;;;;;;8.67;7.17;;;8.4;99.9;;;;;;;;;
2021/05/02 00:10:16;;;;;;;8.83;7.37;;;8.4;99.9;;;;;;;;;
2021/05/02 00:10:26;;;;;;;8.83;7.37;;;8.4;99.9;;;;;;;;;
2021/05/02 00:10:42;;;;;;;8.83;7.37;;;8.4;99.9;;;;;;;;;
2021/05/02 00:10:52;;;;;;;8.83;7.37;;;8.4;99.9;;;;;;;;;
2021/05/02 00:11:02;;;;;;;8.83;7.37;;;8.4;99.9;;;;;;;;;
2021/05/02 00:11:12;;;;;;;8.83;7.37;;;8.4;99.9;;;;;;;;;
2021/05/02 00:11:28;;;;;;;7.87;7;;;8.3;99.9;;;;;;;;;
2021/05/02 00:11:43;;;;;;;7.87;7;;;8.3;99.9;;;;;;;;;
2021/05/02 00:11:53;;;;;;;7.87;7;;;8.3;99.9;;;;;;;;;
2021/05/02 00:12:02;;;;;;;7.87;7;;;8.3;99.9;;;;;;;;;
2021/05/02 00:12:09;;;;;;;7.87;7;;;8.3;99.9;;;;;;;;;
2021/05/02 00:12:14;;;;;;;7.87;7;;;8.3;99.9;;;;;;;;;
2021/05/02 00:12:29;;;;;;;7.87;7.07;;;8.3;99.9;;;;;;;;;
2021/05/02 00:12:39;;;;;;;7.87;7.07;;;8.3;99.9;;;;;;;;;
2021/05/02 00:12:55;;;;;;;7.87;7.07;;;8.3;99.9;;;;;;;;;
2021/05/02 00:13:02;;;;;;;7.87;7.07;;;8.3;99.9;;;;;;;;;
2021/05/02 00:13:06;;;;;;;7.87;7.07;;;8.3;99.9;;;;;;;;;
2021/05/02 00:13:15;;;;;;;8.43;7.53;;;8.4;99.9;;;;;;;;;
2021/05/02 00:13:25;;;;;;;8.43;7.53;;;8.4;99.9;;;;;;;;;
2021/05/02 00:13:41;;;;;;;8.43;7.53;;;8.4;99.9;;;;;;;;;
2021/05/02 00:13:56;;;;;;;8.43;7.53;;;8.4;99.9;;;;;;;;;
2021/05/02 00:14:02;;;;;;;8.43;7.53;;;8.4;99.9;;;;;;;;;
2021/05/02 00:14:06;;;;;;;8.43;7.53;;;8.4;99.9;;;;;;;;;
2021/05/02 00:14:17;;;;;;;9.03;8.13;;;8.4;99.9;;;;;;;;;
2021/05/02 00:14:27;;;;;;;9.03;8.13;;;8.4;99.9;;;;;;;;;
2021/05/02 00:14:42;;;;;;;9.03;8.13;;;8.4;99.9;;;;;;;;;
2021/05/02 00:14:52;;;;;;;9.03;8.13;;;8.4;99.9;;;;;;;;;
2021/05/02 00:15:01;;;;;;;9.03;8.13;;;8.4;99.9;;;;;;;;;
2021/05/02 00:15:08;;;;;;;9.03;8.13;;;8.4;99.9;;;;;;;;;
2021/05/02 00:15:13;;;;;;;9.03;8.13;;;8.4;99.9;;;;;;;;;
2021/05/02 00:15:28;;;;;;;8.63;7.17;;;8.3;99.9;;;;;;;;;
2021/05/02 00:15:38;;;;;;;8.63;7.17;;;8.3;99.9;;;;;;;;;
2021/05/02 00:15:54;;;;;;;8.63;7.17;;;8.3;99.9;;;;;;;;;
2021/05/02 00:16:02;;;;;;;8.63;7.17;;;8.3;99.9;;;;;;;;;
2021/05/02 00:16:09;;;;;;;8.63;7.17;;;8.3;99.9;;;;;;;;;
2021/05/02 00:16:15;;;;;;;8.63;7.17;;;8.3;99.9;;;;;;;;;
2021/05/02 00:16:30;;;;;;;8.33;6.9;;;8.4;99.9;;;;;;;;;
2021/05/02 00:16:40;;;;;;;8.33;6.9;;;8.4;99.9;;;;;;;;;
2021/05/02 00:16:55;;;;;;;8.33;6.9;;;8.4;99.9;;;;;;;;;
2021/05/02 00:17:02;;;;;;;8.33;6.9;;;8.4;99.9;;;;;;;;;
2021/05/02 00:17:06;;;;;;;8.33;6.9;;;8.4;99.9;;;;;;;;;
2021/05/02 00:17:16;;;;;;;8.33;6.9;;;8.4;99.9;;;;;;;;;
2021/05/02 00:17:26;;;;;;;9.27;7.4;;;8.4;99.9;;;;;;;;;
2021/05/02 00:17:41;;;;;;;9.27;7.4;;;8.4;99.9;;;;;;;;;
2021/05/02 00:17:52;;;;;;;9.27;7.4;;;8.4;99.9;;;;;;;;;
2021/05/02 00:18:02;;;;;;;9.27;7.4;;;8.4;99.9;;;;;;;;;
2021/05/02 00:18:07;;;;;;;9.27;7.4;;;8.4;99.9;;;;;;;;;
2021/05/02 00:18:12;;;;;;;9.27;7.4;;;8.4;99.9;;;;;;;;;
2021/05/02 00:18:27;;;;;;;8.77;7.27;;;8.5;99.9;;;;;;;;;
2021/05/02 00:18:43;;;;;;;8.77;7.27;;;8.5;99.9;;;;;;;;;
2021/05/02 00:18:53;;;;;;;8.77;7.27;;;8.5;99.9;;;;;;;;;
2021/05/02 00:19:03;;;;;;;8.77;7.27;;;8.5;99.9;;;;;;;;;
2021/05/02 00:19:08;;;;;;;8.77;7.27;;;8.5;99.9;;;;;;;;;
2021/05/02 00:19:14;;;;;;;8.77;7.27;;;8.5;99.9;;;;;;;;;
2021/05/02 00:19:29;;;;;;;9.73;6.9;;;8.5;99.9;;;;;;;;;
2021/05/02 00:19:39;;;;;;;9.73;6.9;;;8.5;99.9;;;;;;;;;
2021/05/02 00:19:54;;;;;;;9.73;6.9;;;8.5;99.9;;;;;;;;;
2021/05/02 00:20:01;;;;;;;9.73;6.9;;;8.5;99.9;;;;;;;;;
2021/05/02 00:20:05;;;;;;;9.73;6.9;;;8.5;99.9;;;;;;;;;
2021/05/02 00:20:15;;;;;;;9.73;6.9;;;8.5;99.9;;;;;;;;;
2021/05/02 00:20:25;;;;;;;8.23;7.33;;;8.5;99.9;;;;;;;;;
2021/05/02 00:20:41;;;;;;;8.23;7.33;;;8.5;99.9;;;;;;;;;
2021/05/02 00:20:56;;;;;;;8.23;7.33;;;8.5;99.9;;;;;;;;;
2021/05/02 00:21:02;;;;;;;8.23;7.33;;;8.5;99.9;;;;;;;;;
2021/05/02 00:21:06;;;;;;;8.23;7.33;;;8.5;99.9;;;;;;;;;
2021/05/02 00:21:16;;;;;;;8.23;7.33;;;8.5;99.9;;;;;;;;;
2021/05/02 00:21:27;;;;;;;7.8;7;;;8.5;99.9;;;;;;;;;
2021/05/02 00:21:42;;;;;;;7.8;7;;;8.5;99.9;;;;;;;;;
2021/05/02 00:21:52;;;;;;;7.8;7;;;8.5;99.9;;;;;;;;;
2021/05/02 00:22:02;;;;;;;7.8;7;;;8.5;99.9;;;;;;;;;
2021/05/02 00:22:08;;;;;;;7.8;7;;;8.5;99.9;;;;;;;;;
2021/05/02 00:22:13;;;;;;;7.8;7;;;8.5;99.9;;;;;;;;;
2021/05/02 00:22:28;;;;;;;7.8;7;;;8.6;99.9;;;;;;;;;
2021/05/02 00:22:39;;;;;;;7.8;7;;;8.6;99.9;;;;;;;;;
2021/05/02 00:22:54;;;;;;;7.8;7;;;8.6;99.9;;;;;;;;;
2021/05/02 00:23:01;;;;;;;7.8;7;;;8.6;99.9;;;;;;;;;
2021/05/02 00:23:09;;;;;;;7.8;7;;;8.6;99.9;;;;;;;;;
2021/05/02 00:23:19;;;;;;;8.33;7.43;;;8.6;99.9;;;;;;;;;
2021/05/02 00:23:30;;;;;;;8.33;7.43;;;8.6;99.9;;;;;;;;;
2021/05/02 00:23:40;;;;;;;8.33;7.43;;;8.6;99.9;;;;;;;;;
2021/05/02 00:23:55;;;;;;;8.33;7.43;;;8.6;99.9;;;;;;;;;
2021/05/02 00:24:02;;;;;;;8.33;7.43;;;8.6;99.9;;;;;;;;;
2021/05/02 00:24:06;;;;;;;8.33;7.43;;;8.6;99.9;;;;;;;;;
2021/05/02 00:24:18;;;;;;;8.33;7.43;;;8.6;99.9;;;;;;;;;
2021/05/02 00:24:26;;;;;;;8.93;7.7;;;8.6;99.9;;;;;;;;;
2021/05/02 00:24:41;;;;;;;8.93;7.7;;;8.6;99.9;;;;;;;;;
2021/05/02 00:24:57;;;;;;;8.93;7.7;;;8.6;99.9;;;;;;;;;
2021/05/02 00:25:01;;;;;;;8.93;7.7;;;8.6;99.9;;;;;;;;;
2021/05/02 00:25:07;;;;;;;8.93;7.7;;;8.6;99.9;;;;;;;;;
2021/05/02 00:25:17;;;;;;;8.93;7.7;;;8.6;99.9;;;;;;;;;
2021/05/02 00:25:33;;;;;;;8.6;7.7;;;8.6;99.9;;;;;;;;;
2021/05/02 00:25:43;;;;;;;8.6;7.7;;;8.6;99.9;;;;;;;;;
2021/05/02 00:25:53;;;;;;;8.6;7.7;;;8.6;99.9;;;;;;;;;
2021/05/02 00:26:02;;;;;;;8.6;7.7;;;8.6;99.9;;;;;;;;;
2021/05/02 00:26:08;;;;;;;8.6;7.7;;;8.6;99.9;;;;;;;;;
2021/05/02 00:26:13;;;;;;;8.6;7.7;;;8.6;99.9;;;;;;;;;
2021/05/02 00:26:29;;;;;;;9.47;7.57;;;8.6;99.9;;;;;;;;;
2021/05/02 00:26:39;;;;;;;9.47;7.57;;;8.6;99.9;;;;;;;;;
2021/05/02 00:26:54;;;;;;;9.47;7.57;;;8.6;99.9;;;;;;;;;
2021/05/02 00:27:02;;;;;;;9.47;7.57;;;8.6;99.9;;;;;;;;;
2021/05/02 00:27:10;;;;;;;9.47;7.57;;;8.6;99.9;;;;;;;;;
2021/05/02 00:27:15;;;;;;;9.47;7.57;;;8.6;99.9;;;;;;;;;
2021/05/02 00:27:30;;;;;;;8;7.13;;;8.6;99.9;;;;;;;;;
2021/05/02 00:27:46;;;;;;;8;7.13;;;8.6;99.9;;;;;;;;;
2021/05/02 00:27:56;;;;;;;8;7.13;;;8.6;99.9;;;;;;;;;
2021/05/02 00:28:02;;;;;;;8;7.13;;;8.6;99.9;;;;;;;;;
2021/05/02 00:28:06;;;;;;;8;7.13;;;8.6;99.9;;;;;;;;;
2021/05/02 00:28:16;;;;;;;8;7.13;;;8.6;99.9;;;;;;;;;
2021/05/02 00:28:26;;;;;;;9.1;7.97;;;8.5;99.9;;;;;;;;;
2021/05/02 00:28:42;;;;;;;9.1;7.97;;;8.5;99.9;;;;;;;;;
2021/05/02 00:28:52;;;;;;;9.1;7.97;;;8.5;99.9;;;;;;;;;
2021/05/02 00:29:02;;;;;;;9.1;7.97;;;8.5;99.9;;;;;;;;;
2021/05/02 00:29:08;;;;;;;9.1;7.97;;;8.5;99.9;;;;;;;;;
2021/05/02 00:29:18;;;;;;;9.1;7.97;;;8.5;99.9;;;;;;;;;
2021/05/02 00:29:28;;;;;;;9;7.5;;;8.4;99.9;;;;;;;;;
2021/05/02 00:29:43;;;;;;;9;7.5;;;8.4;99.9;;;;;;;;;
2021/05/02 00:29:59;;;;;;;9;7.5;;;8.4;99.9;;;;;;;;;
2021/05/02 00:30:01;;;;;;;9;7.5;;;8.4;99.9;;;;;;;;;
2021/05/02 00:30:09;;;;;;;9;7.5;;;8.4;99.9;;;;;;;;;
2021/05/02 00:30:19;;;;;;;9;7.5;;;8.4;99.9;;;;;;;;;
2021/05/02 00:30:29;;;;;;;9.97;8.5;;;8.4;99.9;;;;;;;;;
2021/05/02 00:30:40;;;;;;;9.97;8.5;;;8.4;99.9;;;;;;;;;
2021/05/02 00:30:55;;;;;;;9.97;8.5;;;8.4;99.9;;;;;;;;;
2021/05/02 00:31:02;;;;;;;9.97;8.5;;;8.4;99.9;;;;;;;;;
2021/05/02 00:31:05;;;;;;;9.97;8.5;;;8.4;99.9;;;;;;;;;
2021/05/02 00:31:17;;;;;;;9.97;8.5;;;8.4;99.9;;;;;;;;;
2021/05/02 00:31:31;;;;;;;10.03;7.8;;;8.4;99.9;;;;;;;;;
2021/05/02 00:31:41;;;;;;;10.03;7.8;;;8.4;99.9;;;;;;;;;
2021/05/02 00:31:56;;;;;;;10.03;7.8;;;8.4;99.9;;;;;;;;;
2021/05/02 00:32:02;;;;;;;10.03;7.8;;;8.4;99.9;;;;;;;;;
2021/05/02 00:32:12;;;;;;;10.03;7.8;;;8.4;99.9;;;;;;;;;
2021/05/02 00:32:17;;;;;;;10.03;7.8;;;8.4;99.9;;;;;;;;;
2021/05/02 00:32:32;;;;;;;9.03;7.93;;;8.3;99.9;;;;;;;;;
2021/05/02 00:32:42;;;;;;;9.03;7.93;;;8.3;99.9;;;;;;;;;
2021/05/02 00:32:53;;;;;;;9.03;7.93;;;8.3;99.9;;;;;;;;;
2021/05/02 00:33:02;;;;;;;9.03;7.93;;;8.3;99.9;;;;;;;;;
2021/05/02 00:33:08;;;;;;;9.03;7.93;;;8.3;99.9;;;;;;;;;
2021/05/02 00:33:13;;;;;;;9.03;7.93;;;8.3;99.9;;;;;;;;;
2021/05/02 00:33:29;;;;;;;9.83;8.27;;;8.3;99.9;;;;;;;;;
2021/05/02 00:33:44;;;;;;;9.83;8.27;;;8.3;99.9;;;;;;;;;
2021/05/02 00:33:54;;;;;;;9.83;8.27;;;8.3;99.9;;;;;;;;;
2021/05/02 00:34:02;;;;;;;9.83;8.27;;;8.3;99.9;;;;;;;;;
2021/05/02 00:34:10;;;;;;;9.83;8.27;;;8.3;99.9;;;;;;;;;
2021/05/02 00:34:15;;;;;;;9.83;8.27;;;8.3;99.9;;;;;;;;;
2021/05/02 00:34:30;;;;;;;9.9;8.6;;;8.3;99.9;;;;;;;;;
2021/05/02 00:34:45;;;;;;;9.9;8.6;;;8.3;99.9;;;;;;;;;
2021/05/02 00:34:56;;;;;;;9.9;8.6;;;8.3;99.9;;;;;;;;;
2021/05/02 00:35:02;;;;;;;9.9;8.6;;;8.3;99.9;;;;;;;;;
2021/05/02 00:35:06;;;;;;;9.9;8.6;;;8.3;99.9;;;;;;;;;
2021/05/02 00:35:16;;;;;;;9.9;8.6;;;8.3;99.9;;;;;;;;;
2021/05/02 00:35:26;;;;;;;10.53;8.53;;;8.3;99.9;;;;;;;;;
2021/05/02 00:35:42;;;;;;;10.53;8.53;;;8.3;99.9;;;;;;;;;
2021/05/02 00:35:57;;;;;;;10.53;8.53;;;8.3;99.9;;;;;;;;;
2021/05/02 00:36:02;;;;;;;10.53;8.53;;;8.3;99.9;;;;;;;;;
2021/05/02 00:36:07;;;;;;;10.53;8.53;;;8.3;99.9;;;;;;;;;
2021/05/02 00:36:12;;;;;;;10.53;8.53;;;8.3;99.9;;;;;;;;;
2021/05/02 00:36:28;;;;;;;9.63;8.33;;;8.2;99.9;;;;;;;;;
2021/05/02 00:36:43;;;;;;;9.63;8.33;;;8.2;99.9;;;;;;;;;
2021/05/02 00:36:58;;;;;;;9.63;8.33;;;8.2;99.9;;;;;;;;;
2021/05/02 00:37:01;;;;;;;9.63;8.33;;;8.2;99.9;;;;;;;;;
2021/05/02 00:37:09;;;;;;;9.63;8.33;;;8.2;99.9;;;;;;;;;
2021/05/02 00:37:14;;;;;;;9.63;8.33;;;8.2;99.9;;;;;;;;;
2021/05/02 00:37:29;;;;;;;11;8.87;;;8.2;99.9;;;;;;;;;
2021/05/02 00:37:39;;;;;;;11;8.87;;;8.2;99.9;;;;;;;;;
2021/05/02 00:37:55;;;;;;;11;8.87;;;8.2;99.9;;;;;;;;;
2021/05/02 00:38:02;;;;;;;11;8.87;;;8.2;99.9;;;;;;;;;
2021/05/02 00:38:10;;;;;;;11;8.87;;;8.2;99.9;;;;;;;;;
2021/05/02 00:38:15;;;;;;;11;8.87;;;8.2;99.9;;;;;;;;;
2021/05/02 00:38:26;;;;;;;10;8.83;;;8.2;99.9;;;;;;;;;
2021/05/02 00:38:41;;;;;;;10;8.83;;;8.2;99.9;;;;;;;;;
2021/05/02 00:38:56;;;;;;;10;8.83;;;8.2;99.9;;;;;;;;;
2021/05/02 00:39:02;;;;;;;10;8.83;;;8.2;99.9;;;;;;;;;
2021/05/02 00:39:12;;;;;;;10;8.83;;;8.2;99.9;;;;;;;;;
2021/05/02 00:39:12;;;;;;;10;8.83;;;8.2;99.9;;;;;;;;;
2021/05/02 00:39:27;;;;;;;11.23;9.13;;;8.1;99.9;;;;;;;;;
2021/05/02 00:39:42;;;;;;;11.23;9.13;;;8.1;99.9;;;;;;;;;
2021/05/02 00:39:53;;;;;;;11.23;9.13;;;8.1;99.9;;;;;;;;;
2021/05/02 00:40:01;;;;;;;11.23;9.13;;;8.1;99.9;;;;;;;;;
2021/05/02 00:40:08;;;;;;;11.23;9.13;;;8.1;99.9;;;;;;;;;
2021/05/02 00:40:13;;;;;;;11.23;9.13;;;8.1;99.9;;;;;;;;;
2021/05/02 00:40:28;;;;;;;11.07;8.33;;;8.1;99.9;;;;;;;;;
2021/05/02 00:40:39;;;;;;;11.07;8.33;;;8.1;99.9;;;;;;;;;
2021/05/02 00:40:54;;;;;;;11.07;8.33;;;8.1;99.9;;;;;;;;;
2021/05/02 00:41:02;;;;;;;11.07;8.33;;;8.1;99.9;;;;;;;;;
2021/05/02 00:41:09;;;;;;;11.07;8.33;;;8.1;99.9;;;;;;;;;
2021/05/02 00:41:15;;;;;;;11.07;8.33;;;8.1;99.9;;;;;;;;;
2021/05/02 00:41:25;;;;;;;11.97;9.43;;;8;99.9;;;;;;;;;
2021/05/02 00:41:40;;;;;;;11.97;9.43;;;8;99.9;;;;;;;;;
2021/05/02 00:41:55;;;;;;;11.97;9.43;;;8;99.9;;;;;;;;;
2021/05/02 00:42:01;;;;;;;11.97;9.43;;;8;99.9;;;;;;;;;
2021/05/02 00:42:06;;;;;;;11.97;9.43;;;8;99.9;;;;;;;;;
2021/05/02 00:42:16;;;;;;;11.97;9.43;;;8;99.9;;;;;;;;;
2021/05/02 00:42:26;;;;;;;10.7;9.5;;;8;99.9;;;;;;;;;
2021/05/02 00:42:47;;;;;;;10.7;9.5;;;8;99.9;;;;;;;;;
2021/05/02 00:42:52;;;;;;;10.7;9.5;;;8;99.9;;;;;;;;;
2021/05/02 00:43:02;;;;;;;10.7;9.5;;;8;99.9;;;;;;;;;
2021/05/02 00:43:07;;;;;;;10.7;9.5;;;8;99.9;;;;;;;;;
2021/05/02 00:43:18;;;;;;;10.7;9.5;;;8;99.9;;;;;;;;;
2021/05/02 00:43:33;;;;;;;10.37;8.9;;;8;99.9;;;;;;;;;
2021/05/02 00:43:38;;;;;;;10.37;8.9;;;8;99.9;;;;;;;;;
2021/05/02 00:43:53;;;;;;;10.37;8.9;;;8;99.9;;;;;;;;;
2021/05/02 00:44:02;;;;;;;10.37;8.9;;;8;99.9;;;;;;;;;
2021/05/02 00:44:09;;;;;;;10.37;8.9;;;8;99.9;;;;;;;;;
2021/05/02 00:44:14;;;;;;;10.37;8.9;;;8;99.9;;;;;;;;;
2021/05/02 00:44:34;;;;;;;13.6;9.77;;;8;99.9;;;;;;;;;
2021/05/02 00:44:40;;;;;;;13.6;9.77;;;8;99.9;;;;;;;;;
2021/05/02 00:45:00;;;;;;;13.6;9.77;;;8;99.9;;;;;;;;;
2021/05/02 00:45:02;;;;;;;13.6;9.77;;;8;99.9;;;;;;;;;
2021/05/02 00:45:06;;;;;;;13.6;9.77;;;8;99.9;;;;;;;;;
2021/05/02 00:45:15;;;;;;;13.6;9.77;;;8;99.9;;;;;;;;;
2021/05/02 00:45:36;;;;;;;9.7;8.2;;;8;99.9;;;;;;;;;
2021/05/02 00:45:46;;;;;;;9.7;8.2;;;8;99.9;;;;;;;;;
2021/05/02 00:45:56;;;;;;;9.7;8.2;;;8;99.9;;;;;;;;;
2021/05/02 00:46:02;;;;;;;9.7;8.2;;;8;99.9;;;;;;;;;
2021/05/02 00:46:06;;;;;;;9.7;8.2;;;8;99.9;;;;;;;;;
2021/05/02 00:46:17;;;;;;;9.7;8.2;;;8;99.9;;;;;;;;;
2021/05/02 00:46:32;;;;;;;11.67;9.9;;;8;99.9;;;;;;;;;
2021/05/02 00:46:53;;;;;;;11.67;9.9;;;8;99.9;;;;;;;;;
2021/05/02 00:46:58;;;;;;;11.67;9.9;;;8;99.9;;;;;;;;;
2021/05/02 00:47:01;;;;;;;11.67;9.9;;;8;99.9;;;;;;;;;
2021/05/02 00:47:18;;;;;;;11.67;9.9;;;8;99.9;;;;;;;;;
2021/05/02 00:47:18;;;;;;;11.67;9.9;;;8;99.9;;;;;;;;;
2021/05/02 00:47:33;;;;;;;10.8;9.37;;;8;99.9;;;;;;;;;
2021/05/02 00:47:54;;;;;;;10.8;9.37;;;8;99.9;;;;;;;;;
2021/05/02 00:47:59;;;;;;;10.8;9.37;;;8;99.9;;;;;;;;;
2021/05/02 00:48:02;;;;;;;10.8;9.37;;;8;99.9;;;;;;;;;
2021/05/02 00:48:09;;;;;;;10.8;9.37;;;8;99.9;;;;;;;;;
2021/05/02 00:48:19;;;;;;;10.8;9.37;;;8;99.9;;;;;;;;;
2021/05/02 00:48:30;;;;;;;10.73;9.63;;;8;99.9;;;;;;;;;
2021/05/02 00:48:46;;;;;;;10.73;9.63;;;8;99.9;;;;;;;;;
2021/05/02 00:49:02;;;;;;;10.73;9.63;;;8;99.9;;;;;;;;;
2021/05/02 00:49:06;;;;;;;10.73;9.63;;;8;99.9;;;;;;;;;
2021/05/02 00:49:17;;;;;;;10.73;9.63;;;8;99.9;;;;;;;;;
2021/05/02 00:49:17;;;;;;;10.73;9.63;;;8;99.9;;;;;;;;;
2021/05/02 00:49:38;;;;;;;10.73;8.77;;;7.9;99.9;;;;;;;;;
2021/05/02 00:49:47;;;;;;;10.73;8.77;;;7.9;99.9;;;;;;;;;
2021/05/02 00:50:04;;;;;;;10.73;8.77;;;7.9;99.9;;;;;;;;;
2021/05/02 00:50:15;;;;;;;10.73;8.77;;;7.9;99.9;;;;;;;;;
2021/05/02 00:50:15;;;;;;;10.73;8.77;;;7.9;99.9;;;;;;;;;
2021/05/02 00:50:20;;;;;;;10.73;8.77;;;7.9;99.9;;;;;;;;;
2021/05/02 00:50:34;;;;;;;11;9;;;8;99.9;;;;;;;;;
2021/05/02 00:50:48;;;;;;;11;9;;;8;99.9;;;;;;;;;
2021/05/02 00:51:04;;;;;;;11;9;;;8;99.9;;;;;;;;;
2021/05/02 00:51:05;;;;;;;11;9;;;8;99.9;;;;;;;;;
2021/05/02 00:51:24;;;;;;;11;9;;;8;99.9;;;;;;;;;
2021/05/02 00:51:24;;;;;;;11;9;;;8;99.9;;;;;;;;;
2021/05/02 00:51:29;;;;;;;10.83;9.63;;;8;99.9;;;;;;;;;
2021/05/02 00:51:57;;;;;;;10.83;9.63;;;8;99.9;;;;;;;;;
2021/05/02 00:52:00;;;;;;;10.83;9.63;;;8;99.9;;;;;;;;;
2021/05/02 00:52:02;;;;;;;10.83;9.63;;;8;99.9;;;;;;;;;
2021/05/02 00:52:20;;;;;;;10.83;9.63;;;8;99.9;;;;;;;;;
2021/05/02 00:52:27;;;;;;;10.83;9.63;;;8;99.9;;;;;;;;;
2021/05/02 00:52:37;;;;;;;10.4;9.27;;;8;99.9;;;;;;;;;
2021/05/02 00:52:51;;;;;;;10.4;9.27;;;8;99.9;;;;;;;;;
2021/05/02 00:53:01;;;;;;;10.4;9.27;;;8;99.9;;;;;;;;;
2021/05/02 00:53:02;;;;;;;10.4;9.27;;;8;99.9;;;;;;;;;
2021/05/02 00:53:16;;;;;;;10.4;9.27;;;8;99.9;;;;;;;;;
2021/05/02 00:53:16;;;;;;;10.4;9.27;;;8;99.9;;;;;;;;;
2021/05/02 00:53:37;;;;;;;11.77;8.83;;;8;99.9;;;;;;;;;
2021/05/02 00:53:42;;;;;;;11.77;8.83;;;8;99.9;;;;;;;;;
2021/05/02 00:54:02;;;;;;;11.77;8.83;;;8;99.9;;;;;;;;;
2021/05/02 00:54:13;;;;;;;11.77;8.83;;;8;99.9;;;;;;;;;
2021/05/02 00:54:13;;;;;;;11.77;8.83;;;8;99.9;;;;;;;;;
2021/05/02 00:54:18;;;;;;;11.77;8.83;;;8;99.9;;;;;;;;;
2021/05/02 00:54:50;;;;;;;11.9;9.5;;;8;99.9;;;;;;;;;
2021/05/02 00:54:50;;;;;;;11.9;9.5;;;8;99.9;;;;;;;;;
2021/05/02 00:55:02;;;;;;;11.9;9.5;;;8;99.9;;;;;;;;;
2021/05/02 00:55:25;;;;;;;11.9;9.5;;;8;99.9;;;;;;;;;
2021/05/02 00:55:30;;;;;;;10.53;8.77;;;8.1;99.9;;;;;;;;;
2021/05/02 00:55:35;;;;;;;10.53;8.77;;;8.1;99.9;;;;;;;;;
2021/05/02 00:55:40;;;;;;;10.53;8.77;;;8.1;99.9;;;;;;;;;
2021/05/02 00:55:55;;;;;;;10.53;8.77;;;8.1;99.9;;;;;;;;;
2021/05/02 00:55:55;;;;;;;10.53;8.77;;;8.1;99.9;;;;;;;;;
2021/05/02 00:56:01;;;;;;;10.53;8.77;;;8.1;99.9;;;;;;;;;
2021/05/02 00:56:22;;;;;;;10.53;8.77;;;8.1;99.9;;;;;;;;;
2021/05/02 00:56:26;;;;;;;10.53;8.77;;;8.1;99.9;;;;;;;;;
2021/05/02 00:56:31;;;;;;;10.23;8.5;;;8;99.9;;;;;;;;;
2021/05/02 00:57:02;;;;;;;10.23;8.5;;;8;99.9;;;;;;;;;
2021/05/02 00:57:02;;;;;;;10.23;8.5;;;8;99.9;;;;;;;;;
2021/05/02 00:57:02;;;;;;;10.23;8.5;;;8;99.9;;;;;;;;;
2021/05/02 00:57:17;;;;;;;10.23;8.5;;;8;99.9;;;;;;;;;
2021/05/02 00:57:48;;;;;;;11.07;8.97;;;8.1;99.9;;;;;;;;;
2021/05/02 00:57:48;;;;;;;11.07;8.97;;;8.1;99.9;;;;;;;;;
2021/05/02 00:57:58;;;;;;;11.07;8.97;;;8.1;99.9;;;;;;;;;
2021/05/02 00:58:02;;;;;;;11.07;8.97;;;8.1;99.9;;;;;;;;;
2021/05/02 00:58:08;;;;;;;11.07;8.97;;;8.1;99.9;;;;;;;;;
2021/05/02 00:58:08;;;;;;;11.07;8.97;;;8.1;99.9;;;;;;;;;
2021/05/02 00:58:24;;;;;;;11.07;8.97;;;8.1;99.9;;;;;;;;;
2021/05/02 00:58:34;;;;;;;10.53;9.43;;;8;99.9;;;;;;;;;
2021/05/02 00:58:44;;;;;;;10.53;9.43;;;8;99.9;;;;;;;;;
2021/05/02 00:59:02;;;;;;;10.53;9.43;;;8;99.9;;;;;;;;;
2021/05/02 00:59:15;;;;;;;10.53;9.43;;;8;99.9;;;;;;;;;
2021/05/02 00:59:15;;;;;;;10.53;9.43;;;8;99.9;;;;;;;;;
2021/05/02 00:59:20;;;;;;;10.53;9.43;;;8;99.9;;;;;;;;;
2021/05/02 00:59:35;;;;;;;10.83;9.43;;;8;99.9;;;;;;;;;
2021/05/02 01:00:02;;;;;;;10.83;9.43;;;8;99.9;;;;;;;;;
2021/05/02 01:00:06;;;;;;;10.83;9.43;;;8;99.9;;;;;;;;;
2021/05/02 01:00:06;;;;;;;10.83;9.43;;;8;99.9;;;;;;;;;
2021/05/02 01:00:16;;;;;;;10.83;9.43;;;8;99.9;;;;;;;;;
2021/05/02 01:00:21;;;;;;;10.83;9.43;;;8;99.9;;;;;;;;;
2021/05/02 01:00:42;;;;;;;10.6;9.23;;;7.9;99.9;;;;;;;;;
2021/05/02 01:00:52;;;;;;;10.6;9.23;;;7.9;99.9;;;;;;;;;
2021/05/02 01:01:02;;;;;;;10.6;9.23;;;7.9;99.9;;;;;;;;;
2021/05/02 01:01:02;;;;;;;10.6;9.23;;;7.9;99.9;;;;;;;;;
2021/05/02 01:01:20;;;;;;;10.6;9.23;;;7.9;99.9;;;;;;;;;
2021/05/02 01:01:28;;;;;;;10.6;9.23;;;7.9;99.9;;;;;;;;;
2021/05/02 01:01:38;;;;;;;11.93;9.9;;;8;99.9;;;;;;;;;
2021/05/02 01:01:59;;;;;;;11.93;9.9;;;8;99.9;;;;;;;;;
2021/05/02 01:02:01;;;;;;;11.93;9.9;;;8;99.9;;;;;;;;;
2021/05/02 01:02:14;;;;;;;11.93;9.9;;;8;99.9;;;;;;;;;
2021/05/02 01:02:19;;;;;;;11.93;9.9;;;8;99.9;;;;;;;;;
2021/05/02 01:02:19;;;;;;;11.93;9.9;;;8;99.9;;;;;;;;;
2021/05/02 01:02:30;;;;;;;10.9;9.23;;;8;99.9;;;;;;;;;
2021/05/02 01:02:55;;;;;;;10.9;9.23;;;8;99.9;;;;;;;;;
2021/05/02 01:03:02;;;;;;;10.9;9.23;;;8;99.9;;;;;;;;;
2021/05/02 01:03:05;;;;;;;10.9;9.23;;;8;99.9;;;;;;;;;
2021/05/02 01:03:15;;;;;;;10.9;9.23;;;8;99.9;;;;;;;;;
2021/05/02 01:03:15;;;;;;;10.9;9.23;;;8;99.9;;;;;;;;;
2021/05/02 01:03:36;;;;;;;10.87;9.5;;;7.9;99.9;;;;;;;;;
2021/05/02 01:03:51;;;;;;;10.87;9.5;;;7.9;99.9;;;;;;;;;
2021/05/02 01:04:02;;;;;;;10.87;9.5;;;7.9;99.9;;;;;;;;;
2021/05/02 01:04:12;;;;;;;10.87;9.5;;;7.9;99.9;;;;;;;;;
2021/05/02 01:04:17;;;;;;;10.87;9.5;;;7.9;99.9;;;;;;;;;
2021/05/02 01:04:27;;;;;;;10.87;9.5;;;7.9;99.9;;;;;;;;;
2021/05/02 01:04:32;;;;;;;11.43;9.67;;;7.9;99.9;;;;;;;;;
2021/05/02 01:04:43;;;;;;;11.43;9.67;;;7.9;99.9;;;;;;;;;
2021/05/02 01:05:02;;;;;;;11.43;9.67;;;7.9;99.9;;;;;;;;;
2021/05/02 01:05:08;;;;;;;11.43;9.67;;;7.9;99.9;;;;;;;;;
2021/05/02 01:05:13;;;;;;;11.43;9.67;;;7.9;99.9;;;;;;;;;
2021/05/02 01:05:18;;;;;;;11.43;9.67;;;7.9;99.9;;;;;;;;;
2021/05/02 01:05:29;;;;;;;11.43;9.67;;;7.9;99.9;;;;;;;;;
2021/05/02 01:05:49;;;;;;;14.07;10.1;;;7.9;99.9;;;;;;;;;
2021/05/02 01:06:02;;;;;;;14.07;10.1;;;7.9;99.9;;;;;;;;;
2021/05/02 01:06:04;;;;;;;14.07;10.1;;;7.9;99.9;;;;;;;;;
2021/05/02 01:06:15;;;;;;;14.07;10.1;;;7.9;99.9;;;;;;;;;
2021/05/02 01:06:25;;;;;;;14.07;10.1;;;7.9;99.9;;;;;;;;;
2021/05/02 01:06:30;;;;;;;14.07;10.1;;;7.9;99.9;;;;;;;;;
2021/05/02 01:06:40;;;;;;;10.97;9.87;;;7.9;99.9;;;;;;;;;
2021/05/02 01:06:56;;;;;;;10.97;9.87;;;7.9;99.9;;;;;;;;;
2021/05/02 01:07:02;;;;;;;10.97;9.87;;;7.9;99.9;;;;;;;;;
2021/05/02 01:07:16;;;;;;;10.97;9.87;;;7.9;99.9;;;;;;;;;
2021/05/02 01:07:21;;;;;;;10.97;9.87;;;7.9;99.9;;;;;;;;;
2021/05/02 01:07:26;;;;;;;10.97;9.87;;;7.9;99.9;;;;;;;;;
2021/05/02 01:07:42;;;;;;;10.83;9.43;;;7.9;99.9;;;;;;;;;
2021/05/02 01:08:02;;;;;;;10.83;9.43;;;7.9;99.9;;;;;;;;;
2021/05/02 01:08:02;;;;;;;10.83;9.43;;;7.9;99.9;;;;;;;;;
2021/05/02 01:08:18;;;;;;;10.83;9.43;;;7.9;99.9;;;;;;;;;
2021/05/02 01:08:18;;;;;;;10.83;9.43;;;7.9;99.9;;;;;;;;;
2021/05/02 01:08:28;;;;;;;10.83;9.43;;;7.9;99.9;;;;;;;;;
2021/05/02 01:08:43;;;;;;;10.03;9.03;;;7.9;99.9;;;;;;;;;
2021/05/02 01:08:56;;;;;;;10.03;9.03;;;7.9;99.9;;;;;;;;;
2021/05/02 01:09:02;;;;;;;10.03;9.03;;;7.9;99.9;;;;;;;;;
2021/05/02 01:09:09;;;;;;;10.03;9.03;;;7.9;99.9;;;;;;;;;
2021/05/02 01:09:14;;;;;;;10.03;9.03;;;7.9;99.9;;;;;;;;;
2021/05/02 01:09:29;;;;;;;10.03;9.03;;;7.9;99.9;;;;;;;;;
2021/05/02 01:09:40;;;;;;;14.1;10.4;;;7.9;99.9;;;;;;;;;
2021/05/02 01:09:55;;;;;;;14.1;10.4;;;7.9;99.9;;;;;;;;;
2021/05/02 01:10:02;;;;;;;14.1;10.4;;;7.9;99.9;;;;;;;;;
2021/05/02 01:10:15;;;;;;;14.1;10.4;;;7.9;99.9;;;;;;;;;
2021/05/02 01:10:15;;;;;;;14.1;10.4;;;7.9;99.9;;;;;;;;;
2021/05/02 01:10:31;;;;;;;14.1;10.4;;;7.9;99.9;;;;;;;;;
2021/05/02 01:10:41;;;;;;;13.2;9.07;;;7.9;99.9;;;;;;;;;
2021/05/02 01:10:56;;;;;;;13.2;9.07;;;7.9;99.9;;;;;;;;;
2021/05/02 01:11:01;;;;;;;13.2;9.07;;;7.9;99.9;;;;;;;;;
2021/05/02 01:11:12;;;;;;;13.2;9.07;;;7.9;99.9;;;;;;;;;
2021/05/02 01:11:17;;;;;;;13.2;9.07;;;7.9;99.9;;;;;;;;;
2021/05/02 01:11:27;;;;;;;13.2;9.07;;;7.9;99.9;;;;;;;;;
2021/05/02 01:11:42;;;;;;;11.53;9.53;;;7.9;99.9;;;;;;;;;
2021/05/02 01:11:53;;;;;;;11.53;9.53;;;7.9;99.9;;;;;;;;;
2021/05/02 01:12:02;;;;;;;11.53;9.53;;;7.9;99.9;;;;;;;;;
2021/05/02 01:12:08;;;;;;;11.53;9.53;;;7.9;99.9;;;;;;;;;
2021/05/02 01:12:18;;;;;;;11.53;9.53;;;7.9;99.9;;;;;;;;;
2021/05/02 01:12:28;;;;;;;11.53;9.53;;;7.9;99.9;;;;;;;;;
2021/05/02 01:12:44;;;;;;;12.7;9.9;;;7.8;99.9;;;;;;;;;
2021/05/02 01:12:54;;;;;;;12.7;9.9;;;7.8;99.9;;;;;;;;;
2021/05/02 01:13:03;;;;;;;12.7;9.9;;;7.8;99.9;;;;;;;;;
2021/05/02 01:13:09;;;;;;;12.7;9.9;;;7.8;99.9;;;;;;;;;
2021/05/02 01:13:15;;;;;;;12.7;9.9;;;7.8;99.9;;;;;;;;;
2021/05/02 01:13:30;;;;;;;12.7;9.9;;;7.8;99.9;;;;;;;;;
2021/05/02 01:13:40;;;;;;;12.4;9.83;;;7.7;99.9;;;;;;;;;
2021/05/02 01:13:56;;;;;;;12.4;9.83;;;7.7;99.9;;;;;;;;;
2021/05/02 01:14:01;;;;;;;12.4;9.83;;;7.7;99.9;;;;;;;;;
2021/05/02 01:14:06;;;;;;;12.4;9.83;;;7.7;99.9;;;;;;;;;
2021/05/02 01:14:16;;;;;;;12.4;9.83;;;7.7;99.9;;;;;;;;;
2021/05/02 01:14:31;;;;;;;12.4;9.83;;;7.7;99.9;;;;;;;;;
2021/05/02 01:14:43;;;;;;;11.7;9.97;;;7.7;99.9;;;;;;;;;
2021/05/02 01:14:57;;;;;;;11.7;9.97;;;7.7;99.9;;;;;;;;;
2021/05/02 01:15:02;;;;;;;11.7;9.97;;;7.7;99.9;;;;;;;;;
2021/05/02 01:15:07;;;;;;;11.7;9.97;;;7.7;99.9;;;;;;;;;
2021/05/02 01:15:21;;;;;;;11.7;9.97;;;7.7;99.9;;;;;;;;;
2021/05/02 01:15:28;;;;;;;11.7;9.97;;;7.7;99.9;;;;;;;;;
2021/05/02 01:15:43;;;;;;;12.73;9.47;;;7.7;99.9;;;;;;;;;
2021/05/02 01:15:59;;;;;;;12.73;9.47;;;7.7;99.9;;;;;;;;;
2021/05/02 01:16:02;;;;;;;12.73;9.47;;;7.7;99.9;;;;;;;;;
2021/05/02 01:16:09;;;;;;;12.73;9.47;;;7.7;99.9;;;;;;;;;
2021/05/02 01:16:14;;;;;;;12.73;9.47;;;7.7;99.9;;;;;;;;;
2021/05/02 01:16:29;;;;;;;12.73;9.47;;;7.7;99.9;;;;;;;;;
2021/05/02 01:16:45;;;;;;;11.97;9.1;;;7.7;99.9;;;;;;;;;
2021/05/02 01:16:55;;;;;;;11.97;9.1;;;7.7;99.9;;;;;;;;;
2021/05/02 01:17:01;;;;;;;11.97;9.1;;;7.7;99.9;;;;;;;;;